sensor_id;sensor_type;location;lat;lon;timestamp;temperature;humidity
6863;DHT22;3470;48.738;9.616;2024-01-30T18:37:52;7.50;94.20
6863;DHT22;3470;48.738;9.616;2024-01-30T18:40:17;7.30;93.90
6863;DHT22;3470;48.738;9.616;2024-01-30T18:42:43;7.40;94.30
6863;DHT22;3470;48.738;9.616;2024-01-30T18:45:09;7.40;94.50
6863;DHT22;3470;48.738;9.616;2024-01-30T18:47:35;7.40;94.80
6863;DHT22;3470;48.738;9.616;2024-01-30T18:50:00;7.30;94.90
6863;DHT22;3470;48.738;9.616;2024-01-30T18:52:26;7.30;94.90
6863;DHT22;3470;48.738;9.616;2024-01-30T18:54:52;7.30;94.90
6863;DHT22;3470;48.738;9.616;2024-01-30T18:57:17;7.30;94.30
6863;DHT22;3470;48.738;9.616;2024-01-30T18:59:43;7.40;94.00
6863;DHT22;3470;48.738;9.616;2024-01-30T19:02:08;7.40;93.80
6863;DHT22;3470;48.738;9.616;2024-01-30T19:04:34;7.50;94.00
6863;DHT22;3470;48.738;9.616;2024-01-30T19:07:00;7.50;93.80
6863;DHT22;3470;48.738;9.616;2024-01-30T19:09:25;7.60;93.60
6863;DHT22;3470;48.738;9.616;2024-01-30T19:11:51;7.70;93.40
6863;DHT22;3470;48.738;9.616;2024-01-30T19:14:17;7.70;93.40
6863;DHT22;3470;48.738;9.616;2024-01-30T19:16:43;7.70;93.20
6863;DHT22;3470;48.738;9.616;2024-01-30T19:19:09;7.80;93.10
6863;DHT22;3470;48.738;9.616;2024-01-30T19:21:35;7.80;93.20
6863;DHT22;3470;48.738;9.616;2024-01-30T19:24:04;7.90;93.20
6863;DHT22;3470;48.738;9.616;2024-01-30T19:26:30;7.90;93.20
6863;DHT22;3470;48.738;9.616;2024-01-30T19:28:55;7.90;93.20
6863;DHT22;3470;48.738;9.616;2024-01-30T19:31:22;7.90;93.20
6863;DHT22;3470;48.738;9.616;2024-01-30T19:33:48;8.00;93.20
6863;DHT22;3470;48.738;9.616;2024-01-30T19:36:14;8.00;93.30
6863;DHT22;3470;48.738;9.616;2024-01-30T19:38:40;8.00;93.30
6863;DHT22;3470;48.738;9.616;2024-01-30T19:41:05;7.90;93.60
6863;DHT22;3470;48.738;9.616;2024-01-30T19:43:33;7.90;93.80
6863;DHT22;3470;48.738;9.616;2024-01-30T19:45:59;7.90;93.90
6863;DHT22;3470;48.738;9.616;2024-01-30T19:48:25;7.90;94.30
6863;DHT22;3470;48.738;9.616;2024-01-30T19:50:51;7.80;94.30
6863;DHT22;3470;48.738;9.616;2024-01-30T19:53:17;7.80;94.40
6863;DHT22;3470;48.738;9.616;2024-01-30T19:55:43;7.80;94.50
6863;DHT22;3470;48.738;9.616;2024-01-30T19:58:09;7.70;94.80
6863;DHT22;3470;48.738;9.616;2024-01-30T20:00:34;7.60;95.00
6863;DHT22;3470;48.738;9.616;2024-01-30T20:03:00;7.60;95.20
6863;DHT22;3470;48.738;9.616;2024-01-30T20:05:26;7.50;95.30
6863;DHT22;3470;48.738;9.616;2024-01-30T20:07:51;7.40;95.50
6863;DHT22;3470;48.738;9.616;2024-01-30T20:10:17;7.40;95.70
6863;DHT22;3470;48.738;9.616;2024-01-30T20:12:42;7.30;95.90
6863;DHT22;3470;48.738;9.616;2024-01-30T20:15:08;7.30;96.20
6863;DHT22;3470;48.738;9.616;2024-01-30T20:17:40;7.20;96.40
6863;DHT22;3470;48.738;9.616;2024-01-30T20:20:08;7.20;96.40
6863;DHT22;3470;48.738;9.616;2024-01-30T20:22:35;7.20;96.40
6863;DHT22;3470;48.738;9.616;2024-01-30T20:25:02;7.20;96.40
6863;DHT22;3470;48.738;9.616;2024-01-30T20:27:27;7.10;96.20
6863;DHT22;3470;48.738;9.616;2024-01-30T20:29:53;7.10;96.30
6863;DHT22;3470;48.738;9.616;2024-01-30T20:32:20;7.00;96.50
6863;DHT22;3470;48.738;9.616;2024-01-30T20:34:46;7.00;97.10
6863;DHT22;3470;48.738;9.616;2024-01-30T20:37:11;7.00;97.10
6863;DHT22;3470;48.738;9.616;2024-01-30T20:39:37;7.00;97.20
6863;DHT22;3470;48.738;9.616;2024-01-30T20:42:04;7.00;97.10
6863;DHT22;3470;48.738;9.616;2024-01-30T20:44:31;7.00;97.20
6863;DHT22;3470;48.738;9.616;2024-01-30T20:46:56;7.00;97.10
6863;DHT22;3470;48.738;9.616;2024-01-30T20:49:22;7.00;97.10
6863;DHT22;3470;48.738;9.616;2024-01-30T20:51:48;7.00;97.00
6863;DHT22;3470;48.738;9.616;2024-01-30T20:54:13;7.10;97.00
6863;DHT22;3470;48.738;9.616;2024-01-30T20:56:39;7.30;96.70
6863;DHT22;3470;48.738;9.616;2024-01-30T20:59:04;7.40;96.70
6863;DHT22;3470;48.738;9.616;2024-01-30T21:01:30;7.50;96.50
6863;DHT22;3470;48.738;9.616;2024-01-30T21:03:55;7.60;96.40
6863;DHT22;3470;48.738;9.616;2024-01-30T21:06:21;7.60;96.50
6863;DHT22;3470;48.738;9.616;2024-01-30T21:08:47;7.50;96.80
6863;DHT22;3470;48.738;9.616;2024-01-30T21:11:12;7.50;96.60
6863;DHT22;3470;48.738;9.616;2024-01-30T21:13:38;7.50;96.70
